Terminal Aerodrome Forecast
Issued by NWS Corpus Christi, TX

Home | Current Version | Previous Version | Text Only | Print | Product List | Glossary On
Versions: 1 2 3 4 5 6 7 8 9 10 11 12 13 14 15 16 17 18
000
FTUS44 KCRP 230500
TAFCRP
TAF
KCRP 230532Z 2306/2406 17006KT P6SM FEW015 SCT050
     FM231100 VRB04KT 6SM BR FEW005 BKN015
     FM231400 15014G18KT P6SM SCT035
     FM231900 14018G24KT P6SM FEW040 BKN250
     FM240200 14014KT P6SM SCT015 BKN250=

USA.gov is the U.S. government's official web portal to all federal, state and local government web resources and services.